Time,TemperatureF,DewpointF,PressureIn,WindDirection,WindDirectionDegrees,WindSpeedMPH,WindSpeedGustMPH,Humidity,HourlyPrecipIn,Conditions,Clouds,dailyrainin,SolarRadiationWatts/m^2,SoftwareType,DateUTC
2013-02-11 00:00:00,31.0,31.0,-100.00,SSE,157,7.0,-999.0,97,-99.99,,,-99.99,0.000000,,2013-02-11 05:00:00,
2013-02-11 00:42:00,31.0,31.0,-100.00,SSE,157,7.0,-999.0,97,-99.99,,,-99.99,0.000000,,2013-02-11 05:42:00,
2013-02-11 00:53:00,31.0,31.0,-100.00,SSE,157,7.0,-999.0,97,-99.99,,,-99.99,0.000000,,2013-02-11 05:53:00,
2013-02-11 02:00:00,32.0,32.0,-100.00,SE,135,6.0,-999.0,97,-99.99,,,-99.99,0.000000,,2013-02-11 07:00:00,
2013-02-11 02:42:00,32.0,32.0,-100.00,SE,135,6.0,-999.0,97,-99.99,,,-99.99,0.000000,,2013-02-11 07:42:00,
2013-02-11 02:52:00,32.0,32.0,-100.00,SE,135,6.0,-999.0,97,-99.99,,,-99.99,0.000000,,2013-02-11 07:52:00,
2013-02-11 03:00:00,32.0,32.0,-100.00,SE,135,5.0,-999.0,97,-99.99,,,-99.99,0.000000,,2013-02-11 08:00:00,
2013-02-11 03:42:00,32.0,32.0,-100.00,SE,135,5.0,-999.0,97,-99.99,,,-99.99,0.000000,,2013-02-11 08:42:00,
2013-02-11 03:52:00,32.0,32.0,-100.00,SE,135,5.0,-999.0,97,-99.99,,,-99.99,0.000000,,2013-02-11 08:52:00,
2013-02-11 04:00:00,33.0,32.0,-100.00,SE,135,5.0,-999.0,97,-99.99,,,-99.99,0.000000,,2013-02-11 09:00:00,
2013-02-11 04:42:00,33.0,32.0,-100.00,SE,135,5.0,-999.0,97,-99.99,,,-99.99,0.000000,,2013-02-11 09:42:00,
2013-02-11 04:52:00,33.0,32.0,-100.00,SE,135,5.0,-999.0,97,-99.99,,,-99.99,0.000000,,2013-02-11 09:52:00,
2013-02-11 05:00:00,33.0,33.0,-100.00,SSE,157,2.0,-999.0,97,-99.99,,,-99.99,0.000000,,2013-02-11 10:00:00,
2013-02-11 05:42:00,33.0,33.0,-100.00,SSE,157,2.0,-999.0,97,-99.99,,,-99.99,0.000000,,2013-02-11 10:42:00,
2013-02-11 05:52:00,33.0,33.0,-100.00,SSE,157,2.0,-999.0,97,-99.99,,,-99.99,0.000000,,2013-02-11 10:52:00,
2013-02-11 07:00:00,34.0,33.0,-100.00,SSW,202,4.0,-999.0,97,-99.99,,,-99.99,0.000000,,2013-02-11 12:00:00,
2013-02-11 07:42:00,34.0,33.0,-100.00,SSW,202,4.0,-999.0,97,-99.99,,,-99.99,0.000000,,2013-02-11 12:42:00,
2013-02-11 07:52:00,34.0,33.0,-100.00,SSW,202,4.0,-999.0,97,-99.99,,,-99.99,0.000000,,2013-02-11 12:52:00,
2013-02-11 08:00:00,33.0,33.0,-100.00,SSW,202,2.0,-999.0,98,-99.99,,,-99.99,0.000000,,2013-02-11 13:00:00,
2013-02-11 08:42:00,33.0,33.0,-100.00,SSW,202,2.0,-999.0,98,-99.99,,,-99.99,0.000000,,2013-02-11 13:42:00,
2013-02-11 08:52:00,33.0,33.0,-100.00,SSW,202,2.0,-999.0,98,-99.99,,,-99.99,0.000000,,2013-02-11 13:52:00,
2013-02-11 09:00:00,32.0,32.0,-100.00,SSW,202,3.0,-999.0,98,-99.99,,,-99.99,19.719999,,2013-02-11 14:00:00,
2013-02-11 09:42:00,32.0,32.0,-100.00,SSW,202,3.0,-999.0,98,-99.99,,,-99.99,19.719999,,2013-02-11 14:42:00,
2013-02-11 09:53:00,32.0,32.0,-100.00,SSW,202,3.0,-999.0,98,-99.99,,,-99.99,19.719999,,2013-02-11 14:53:00,
2013-02-11 10:00:00,32.0,32.0,-100.00,SSW,202,3.0,-999.0,98,-99.99,,,-99.99,110.199997,,2013-02-11 15:00:00,
2013-02-11 10:42:00,32.0,32.0,-100.00,SSW,202,3.0,-999.0,98,-99.99,,,-99.99,110.199997,,2013-02-11 15:42:00,
2013-02-11 10:52:00,32.0,32.0,-100.00,SSW,202,3.0,-999.0,98,-99.99,,,-99.99,110.199997,,2013-02-11 15:52:00,
2013-02-11 11:00:00,33.0,33.0,-100.00,SW,225,5.0,-999.0,98,-99.99,,,-99.99,118.320000,,2013-02-11 16:00:00,
2013-02-11 11:42:00,33.0,33.0,-100.00,SW,225,5.0,-999.0,98,-99.99,,,-99.99,118.320000,,2013-02-11 16:42:00,
2013-02-11 11:52:00,33.0,33.0,-100.00,SW,225,5.0,-999.0,98,-99.99,,,-99.99,118.320000,,2013-02-11 16:52:00,
2013-02-11 12:00:00,33.0,33.0,-100.00,West,270,2.0,-999.0,97,0.04,,,-99.99,125.279999,,2013-02-11 17:00:00,
2013-02-11 12:42:00,33.0,33.0,-100.00,West,270,2.0,-999.0,97,0.04,,,-99.99,125.279999,,2013-02-11 17:42:00,
2013-02-11 12:53:00,33.0,33.0,-100.00,West,270,2.0,-999.0,97,0.04,,,-99.99,125.279999,,2013-02-11 17:53:00,
2013-02-11 13:00:00,32.0,31.0,-100.00,West,270,6.0,-999.0,97,0.12,,,-99.99,117.160004,,2013-02-11 18:00:00,
2013-02-11 13:42:00,32.0,31.0,-100.00,West,270,6.0,-999.0,97,0.12,,,-99.99,117.160004,,2013-02-11 18:42:00,
2013-02-11 13:53:00,32.0,31.0,-100.00,West,270,6.0,-999.0,97,0.12,,,-99.99,117.160004,,2013-02-11 18:53:00,
2013-02-11 15:00:00,28.0,26.0,-100.00,NW,315,0.0,-999.0,92,-99.99,,,-99.99,97.440002,,2013-02-11 20:00:00,
2013-02-11 15:42:00,28.0,26.0,-100.00,NW,315,0.0,-999.0,92,-99.99,,,-99.99,97.440002,,2013-02-11 20:42:00,
2013-02-11 15:52:00,28.0,26.0,-100.00,NW,315,0.0,-999.0,92,-99.99,,,-99.99,97.440002,,2013-02-11 20:52:00,
2013-02-11 16:00:00,26.0,23.0,-100.00,NW,315,0.0,-999.0,90,-99.99,,,-99.99,60.320000,,2013-02-11 21:00:00,
2013-02-11 16:42:00,26.0,23.0,-100.00,NW,315,0.0,-999.0,90,-99.99,,,-99.99,60.320000,,2013-02-11 21:42:00,
2013-02-11 16:52:00,26.0,23.0,-100.00,NW,315,0.0,-999.0,90,-99.99,,,-99.99,60.320000,,2013-02-11 21:52:00,
2013-02-11 18:00:00,23.0,20.0,-100.00,NW,315,0.0,-999.0,87,-99.99,,,-99.99,19.719999,,2013-02-11 23:00:00,
2013-02-11 18:42:00,23.0,20.0,-100.00,NW,315,0.0,-999.0,87,-99.99,,,-99.99,19.719999,,2013-02-11 23:42:00,
2013-02-11 18:52:00,23.0,20.0,-100.00,NW,315,0.0,-999.0,87,-99.99,,,-99.99,19.719999,,2013-02-11 23:52:00,
2013-02-11 19:00:00,22.0,19.0,-100.00,WNW,292,0.0,-999.0,87,-99.99,,,-99.99,1.160000,,2013-02-12 00:00:00,
2013-02-11 19:42:00,22.0,19.0,-100.00,WNW,292,0.0,-999.0,87,-99.99,,,-99.99,1.160000,,2013-02-12 00:42:00,
2013-02-11 19:52:00,22.0,19.0,-100.00,WNW,292,0.0,-999.0,87,-99.99,,,-99.99,1.160000,,2013-02-12 00:52:00,
2013-02-11 22:00:00,21.0,17.0,-100.00,West,270,0.0,-999.0,84,-99.99,,,-99.99,0.000000,,2013-02-12 03:00:00,
2013-02-11 22:42:00,21.0,17.0,-100.00,West,270,0.0,-999.0,84,-99.99,,,-99.99,0.000000,,2013-02-12 03:42:00,
2013-02-11 22:52:00,21.0,17.0,-100.00,West,270,0.0,-999.0,84,-99.99,,,-99.99,0.000000,,2013-02-12 03:52:00,
2013-02-11 23:00:00,21.0,16.0,-100.00,West,270,0.0,-999.0,83,-99.99,,,-99.99,0.000000,,2013-02-12 04:00:00,
2013-02-11 23:42:00,21.0,16.0,-100.00,West,270,0.0,-999.0,83,-99.99,,,-99.99,0.000000,,2013-02-12 04:42:00,
2013-02-11 23:52:00,21.0,16.0,-100.00,West,270,0.0,-999.0,83,-99.99,,,-99.99,0.000000,,2013-02-12 04:52:00,